createdAt,value
2022-08-17T00:01:54.671Z,3.60
2022-08-17T00:03:03.402Z,4.40
2022-08-17T00:04:09.286Z,4.00
2022-08-17T00:05:15.540Z,3.80
2022-08-17T00:06:19.959Z,4.07
2022-08-17T00:07:21.474Z,4.40
2022-08-17T00:08:25.267Z,3.97
2022-08-17T00:09:26.822Z,4.45
2022-08-17T00:10:28.415Z,4.18
2022-08-17T00:11:37.956Z,4.47
2022-08-17T00:12:43.983Z,4.07
2022-08-17T00:13:48.651Z,3.92
2022-08-17T00:14:50.156Z,4.35
2022-08-17T00:15:54.302Z,4.00
2022-08-17T00:16:57.240Z,3.53
2022-08-17T00:17:59.190Z,4.35
2022-08-17T00:19:08.498Z,4.18
2022-08-17T00:20:11.172Z,3.75
2022-08-17T00:21:15.655Z,4.00
2022-08-17T00:22:34.465Z,4.55
2022-08-17T00:23:39.266Z,4.30
2022-08-17T00:24:46.063Z,3.65
2022-08-17T00:25:48.108Z,4.15
2022-08-17T00:26:51.081Z,4.18
2022-08-17T00:27:52.566Z,4.20
2022-08-17T00:28:56.422Z,3.95
2022-08-17T00:29:57.898Z,3.70
2022-08-17T00:30:59.840Z,4.47
2022-08-17T00:32:01.728Z,3.92
2022-08-17T00:33:27.298Z,4.10
2022-08-17T00:34:29.011Z,3.80
2022-08-17T00:35:33.659Z,3.75
2022-08-17T00:36:35.165Z,3.75
2022-08-17T00:37:36.711Z,4.22
2022-08-17T00:38:38.489Z,4.13
2022-08-17T00:39:40.073Z,3.70
2022-08-17T00:40:44.947Z,4.50
2022-08-17T00:41:46.619Z,4.70
2022-08-17T00:42:49.751Z,4.80
2022-08-17T00:43:54.850Z,4.18
2022-08-17T00:44:56.558Z,4.20
2022-08-17T00:45:59.190Z,5.03
2022-08-17T00:47:00.665Z,4.78
2022-08-17T00:48:02.409Z,4.20
2022-08-17T00:49:04.506Z,4.05
2022-08-17T00:50:10.435Z,4.57
2022-08-17T00:51:29.522Z,4.47
2022-08-17T00:52:37.060Z,4.40
2022-08-17T00:53:42.562Z,4.55
2022-08-17T00:54:48.941Z,4.30
2022-08-17T00:55:50.742Z,4.40
2022-08-17T00:56:55.031Z,4.75
2022-08-17T00:58:00.101Z,4.85
2022-08-17T00:59:05.082Z,4.93
2022-08-17T01:00:11.905Z,5.18
2022-08-17T01:01:21.474Z,5.00
2022-08-17T01:02:24.359Z,5.00
2022-08-17T01:03:26.238Z,4.90
2022-08-17T01:04:29.793Z,4.68
2022-08-17T01:05:34.256Z,4.47
2022-08-17T01:06:36.089Z,4.40
2022-08-17T01:07:38.113Z,4.43
2022-08-17T01:08:40.218Z,4.95
2022-08-17T01:09:43.322Z,4.88
2022-08-17T01:10:59.865Z,4.80
2022-08-17T01:12:03.876Z,5.05
2022-08-17T01:13:06.969Z,4.80
2022-08-17T01:14:08.772Z,5.30
2022-08-17T01:15:11.325Z,4.70
2022-08-17T01:16:17.635Z,5.03
2022-08-17T01:17:19.123Z,5.15
2022-08-17T01:18:20.971Z,5.03
2022-08-17T01:19:25.777Z,5.35
2022-08-17T01:20:27.403Z,5.28
2022-08-17T01:21:38.097Z,4.90
2022-08-17T01:22:40.971Z,5.10
2022-08-17T01:23:42.460Z,5.00
2022-08-17T01:24:46.856Z,4.68
2022-08-17T01:25:50.286Z,5.30
2022-08-17T01:26:51.777Z,5.40
2022-08-17T01:27:53.492Z,4.65
2022-08-17T01:28:56.008Z,5.38
2022-08-17T01:30:01.568Z,4.82
2022-08-17T01:31:06.059Z,4.70
2022-08-17T01:32:08.898Z,4.68
2022-08-17T01:33:10.844Z,4.63
2022-08-17T01:34:14.534Z,4.93
2022-08-17T01:35:16.051Z,4.70
2022-08-17T01:36:18.060Z,5.50
2022-08-17T01:37:20.904Z,6.65
2022-08-17T01:38:27.053Z,5.50
2022-08-17T01:39:31.864Z,4.68
2022-08-17T01:40:36.311Z,4.88
2022-08-17T01:41:39.917Z,5.43
2022-08-17T01:42:44.326Z,5.15
2022-08-17T01:43:49.656Z,5.28
2022-08-17T01:44:56.123Z,5.25
2022-08-17T01:46:02.697Z,5.05
2022-08-17T01:47:05.822Z,5.55
2022-08-17T01:48:07.316Z,5.15
2022-08-17T01:49:11.205Z,5.15
2022-08-17T01:50:16.745Z,5.38
2022-08-17T01:51:18.978Z,4.88
2022-08-17T01:52:20.888Z,5.32
2022-08-17T01:53:27.425Z,5.03
2022-08-17T01:54:29.186Z,4.82
2022-08-17T01:55:35.923Z,5.13
2022-08-17T01:56:42.233Z,5.10
2022-08-17T01:57:43.702Z,4.85
2022-08-17T01:58:45.273Z,5.85
2022-08-17T01:59:46.867Z,5.10
2022-08-17T02:00:59.853Z,5.25
2022-08-17T02:02:01.927Z,5.38
2022-08-17T02:03:04.135Z,5.57
2022-08-17T02:04:06.585Z,5.55
2022-08-17T02:05:08.704Z,5.43
2022-08-17T02:06:27.875Z,5.53
2022-08-17T02:07:29.872Z,5.10
2022-08-17T02:08:38.896Z,5.47
2022-08-17T02:09:42.138Z,5.20
2022-08-17T02:10:46.843Z,5.10
2022-08-17T02:11:48.421Z,5.20
2022-08-17T02:12:52.234Z,5.63
2022-08-17T02:14:02.355Z,5.10
2022-08-17T02:15:06.293Z,5.50
2022-08-17T02:16:07.843Z,5.20
2022-08-17T02:17:09.375Z,5.18
2022-08-17T02:18:11.943Z,5.10
2022-08-17T02:19:15.376Z,5.28
2022-08-17T02:20:16.893Z,5.30
2022-08-17T02:21:40.047Z,5.95
2022-08-17T02:22:45.699Z,5.18
2022-08-17T02:23:49.394Z,4.85
2022-08-17T02:25:01.252Z,5.50
2022-08-17T02:26:04.325Z,4.93
2022-08-17T02:27:06.257Z,5.07
2022-08-17T02:28:07.732Z,5.78
2022-08-17T02:29:09.263Z,5.68
2022-08-17T02:30:59.954Z,5.30
2022-08-17T02:31:35.614Z,5.57
2022-08-17T02:32:37.508Z,5.35
2022-08-17T02:33:41.804Z,5.50
2022-08-17T02:34:44.801Z,5.90
2022-08-17T02:35:46.454Z,6.07
2022-08-17T02:36:47.909Z,5.07
2022-08-17T02:37:51.865Z,5.70
2022-08-17T02:38:58.652Z,5.25
2022-08-17T02:40:00.528Z,5.50
2022-08-17T02:41:02.242Z,5.57
2022-08-17T02:42:04.475Z,5.95
2022-08-17T02:43:06.661Z,5.82
2022-08-17T02:44:08.174Z,5.57
2022-08-17T02:45:13.558Z,5.85
2022-08-17T02:46:15.105Z,5.97
2022-08-17T02:47:16.591Z,5.60
2022-08-17T02:48:30.643Z,5.90
2022-08-17T02:49:33.396Z,6.05
2022-08-17T02:50:34.914Z,5.68
2022-08-17T02:51:36.443Z,5.70
2022-08-17T02:52:43.744Z,5.40
2022-08-17T02:53:45.854Z,5.95
2022-08-17T02:54:48.711Z,5.72
2022-08-17T02:55:50.192Z,5.82
2022-08-17T02:56:53.261Z,5.50
2022-08-17T02:57:55.000Z,5.80
2022-08-17T02:58:56.524Z,5.20
2022-08-17T02:59:58.015Z,5.40
2022-08-17T03:00:59.514Z,5.38
2022-08-17T03:02:02.772Z,5.70
2022-08-17T03:03:05.840Z,5.82
2022-08-17T03:04:07.407Z,5.32
2022-08-17T03:05:11.311Z,6.00
2022-08-17T03:06:12.811Z,5.63
2022-08-17T03:07:14.371Z,5.72
2022-08-17T03:08:16.363Z,6.25
2022-08-17T03:09:17.843Z,5.85
2022-08-17T03:10:21.319Z,5.85
2022-08-17T03:11:22.881Z,6.30
2022-08-17T03:12:24.348Z,5.57
2022-08-17T03:13:26.054Z,5.55
2022-08-17T03:14:27.564Z,5.28
2022-08-17T03:15:31.741Z,6.13
2022-08-17T03:16:33.254Z,5.40
2022-08-17T03:17:36.232Z,5.28
2022-08-17T03:18:37.789Z,5.47
2022-08-17T03:19:42.978Z,5.68
2022-08-17T03:20:44.875Z,5.70
2022-08-17T03:21:46.387Z,5.40
2022-08-17T03:23:01.882Z,5.43
2022-08-17T03:24:08.906Z,5.80
2022-08-17T03:25:13.275Z,5.50
2022-08-17T03:26:22.339Z,5.68
2022-08-17T03:27:23.807Z,5.68
2022-08-17T03:28:25.930Z,5.35
2022-08-17T03:29:27.427Z,5.57
2022-08-17T03:30:29.573Z,6.68
2022-08-17T03:31:31.094Z,5.70
2022-08-17T03:32:37.875Z,5.65
2022-08-17T03:33:39.457Z,5.53
2022-08-17T03:34:41.042Z,5.50
2022-08-17T03:35:42.602Z,5.95
2022-08-17T03:36:44.420Z,5.60
2022-08-17T03:37:46.394Z,5.78
2022-08-17T03:38:47.929Z,5.53
2022-08-17T03:39:52.789Z,5.65
2022-08-17T03:40:56.673Z,5.45
2022-08-17T03:42:06.810Z,5.20
2022-08-17T03:43:09.956Z,5.20
2022-08-17T03:44:11.419Z,5.22
2022-08-17T03:45:16.655Z,5.97
2022-08-17T03:46:27.915Z,5.43
2022-08-17T03:47:30.646Z,5.18
2022-08-17T03:48:32.595Z,5.50
2022-08-17T03:49:34.104Z,6.47
2022-08-17T03:50:35.614Z,5.22
2022-08-17T03:51:37.120Z,5.35
2022-08-17T03:52:38.608Z,5.15
2022-08-17T03:53:48.286Z,5.55
2022-08-17T03:54:49.795Z,5.57
2022-08-17T03:55:51.452Z,5.18
2022-08-17T03:56:59.837Z,5.35
2022-08-17T03:58:02.643Z,5.10
2022-08-17T03:59:04.151Z,4.95
2022-08-17T04:00:07.320Z,5.32
2022-08-17T04:01:09.576Z,5.30
2022-08-17T04:02:15.483Z,4.97
2022-08-17T04:03:17.770Z,5.50
2022-08-17T04:04:20.979Z,5.10
2022-08-17T04:05:29.346Z,5.43
2022-08-17T04:06:30.812Z,5.72
2022-08-17T04:07:32.342Z,5.38
2022-08-17T04:08:33.917Z,4.80
2022-08-17T04:09:35.868Z,5.47
2022-08-17T04:10:38.563Z,5.50
2022-08-17T04:11:46.525Z,5.25
2022-08-17T04:12:51.316Z,5.43
2022-08-17T04:13:54.321Z,5.00
2022-08-17T04:14:55.971Z,5.22
2022-08-17T04:15:57.437Z,5.18
2022-08-17T04:16:58.895Z,5.35
2022-08-17T04:18:00.535Z,5.25
2022-08-17T04:19:02.849Z,4.82
2022-08-17T04:20:05.116Z,4.88
2022-08-17T04:21:08.771Z,4.95
2022-08-17T04:22:10.263Z,5.43
2022-08-17T04:23:31.736Z,5.15
2022-08-17T04:24:34.305Z,5.57
2022-08-17T04:25:39.256Z,5.40
2022-08-17T04:26:53.631Z,5.00
2022-08-17T04:27:56.707Z,4.75
2022-08-17T04:28:59.854Z,4.75
2022-08-17T04:30:01.910Z,4.88
2022-08-17T04:31:03.624Z,4.80
2022-08-17T04:32:05.905Z,5.15
2022-08-17T04:33:09.832Z,4.70
2022-08-17T04:34:11.524Z,4.50
2022-08-17T04:35:17.930Z,4.68
2022-08-17T04:36:19.569Z,4.68
2022-08-17T04:37:21.058Z,4.97
2022-08-17T04:38:25.100Z,4.63
2022-08-17T04:39:26.638Z,5.03
2022-08-17T04:40:28.499Z,4.75
2022-08-17T04:41:30.315Z,5.05
2022-08-17T04:42:31.777Z,4.95
2022-08-17T04:43:35.772Z,4.80
2022-08-17T04:44:38.610Z,4.65
2022-08-17T04:45:54.984Z,4.72
2022-08-17T04:46:57.963Z,5.05
2022-08-17T04:48:00.961Z,4.90
2022-08-17T04:49:05.906Z,4.72
2022-08-17T04:50:08.444Z,5.00
2022-08-17T04:51:12.401Z,5.20
2022-08-17T04:52:29.675Z,4.78
2022-08-17T04:53:35.761Z,4.75
2022-08-17T04:54:37.231Z,5.25
2022-08-17T04:55:39.506Z,5.00
2022-08-17T04:56:41.287Z,4.78
2022-08-17T04:57:45.091Z,4.72
2022-08-17T04:58:52.349Z,4.85
2022-08-17T04:59:55.170Z,5.20
2022-08-17T05:00:56.724Z,4.70
2022-08-17T05:01:58.275Z,4.78
2022-08-17T05:02:59.860Z,4.80
2022-08-17T05:04:21.127Z,4.82
2022-08-17T05:05:29.662Z,4.88
2022-08-17T05:06:32.927Z,5.10
2022-08-17T05:07:34.854Z,5.13
2022-08-17T05:08:38.613Z,5.25
2022-08-17T05:09:40.072Z,5.18
2022-08-17T05:10:45.189Z,4.88
2022-08-17T05:11:47.346Z,4.68
2022-08-17T05:12:57.273Z,5.00
2022-08-17T05:13:59.070Z,5.07
2022-08-17T05:15:01.902Z,5.13
2022-08-17T05:16:04.203Z,5.40
2022-08-17T05:17:09.352Z,4.93
2022-08-17T05:18:13.139Z,4.82
2022-08-17T05:19:14.593Z,4.55
2022-08-17T05:20:16.182Z,4.75
2022-08-17T05:21:18.995Z,4.22
2022-08-17T05:22:20.549Z,4.20
2022-08-17T05:23:24.573Z,5.05
2022-08-17T05:24:40.753Z,4.55
2022-08-17T05:25:47.962Z,4.30
2022-08-17T05:26:49.489Z,4.38
2022-08-17T05:27:51.690Z,4.50
2022-08-17T05:28:53.830Z,4.10
2022-08-17T05:29:55.713Z,4.35
2022-08-17T05:31:01.239Z,4.05
2022-08-17T05:32:37.446Z,4.15
2022-08-17T05:33:35.120Z,4.13
2022-08-17T05:34:36.580Z,4.13
2022-08-17T05:35:43.016Z,4.15
2022-08-17T05:36:44.661Z,4.47
2022-08-17T05:37:46.281Z,4.40
2022-08-17T05:38:47.750Z,4.07
2022-08-17T05:39:49.278Z,4.50
2022-08-17T05:40:51.665Z,4.18
2022-08-17T05:41:53.157Z,4.43
2022-08-17T05:43:04.973Z,4.30
2022-08-17T05:44:06.468Z,4.70
2022-08-17T05:45:09.244Z,3.80
2022-08-17T05:46:20.148Z,3.75
2022-08-17T05:47:24.114Z,4.53
2022-08-17T05:48:36.794Z,4.22
2022-08-17T05:49:41.430Z,4.30
2022-08-17T05:50:50.916Z,4.28
2022-08-17T05:52:10.186Z,3.92
2022-08-17T05:53:21.587Z,4.38
2022-08-17T05:54:38.792Z,3.90
2022-08-17T05:55:48.870Z,3.75
2022-08-17T05:57:13.638Z,4.00
2022-08-17T05:58:23.805Z,3.75
2022-08-17T05:59:34.977Z,4.55
2022-08-17T06:00:42.989Z,4.20
2022-08-17T06:01:55.976Z,3.78
2022-08-17T06:03:32.996Z,3.70
2022-08-17T06:05:00.414Z,3.72
2022-08-17T06:06:17.285Z,3.72
2022-08-17T06:07:36.306Z,3.47
2022-08-17T06:08:51.633Z,3.55
2022-08-17T06:10:00.206Z,3.75
2022-08-17T06:11:10.282Z,3.47
2022-08-17T06:12:36.261Z,3.47
2022-08-17T06:13:52.202Z,3.60
2022-08-17T06:15:04.074Z,3.65
2022-08-17T06:16:33.859Z,3.33
2022-08-17T06:17:36.193Z,4.00
2022-08-17T06:18:45.402Z,3.78
2022-08-17T06:19:52.543Z,3.80
2022-08-17T06:20:58.360Z,3.50
2022-08-17T06:22:00.269Z,3.63
2022-08-17T06:23:08.556Z,3.70
2022-08-17T06:24:27.471Z,3.58
2022-08-17T06:25:34.584Z,3.50
2022-08-17T06:26:43.004Z,3.53
2022-08-17T06:27:53.414Z,3.45
2022-08-17T06:29:00.099Z,3.17
2022-08-17T06:30:07.460Z,3.45
2022-08-17T06:31:23.542Z,3.15
2022-08-17T06:32:25.429Z,3.60
2022-08-17T06:33:31.492Z,3.55
2022-08-17T06:34:32.984Z,3.63
2022-08-17T06:35:41.457Z,3.65
2022-08-17T06:36:56.666Z,3.75
2022-08-17T06:38:09.137Z,3.35
2022-08-17T06:39:35.057Z,3.30
2022-08-17T06:40:49.474Z,3.65
2022-08-17T06:42:01.166Z,3.63
2022-08-17T06:43:15.523Z,2.95
2022-08-17T06:44:43.237Z,3.30
2022-08-17T06:45:45.550Z,3.40
2022-08-17T06:46:50.884Z,3.72
2022-08-17T06:47:59.261Z,3.08
2022-08-17T06:49:14.160Z,3.20
2022-08-17T06:50:19.833Z,3.40
2022-08-17T06:51:24.969Z,3.20
2022-08-17T06:52:45.471Z,3.30
2022-08-17T06:53:59.812Z,3.47
2022-08-17T06:55:05.318Z,3.75
2022-08-17T06:56:09.470Z,3.47
2022-08-17T06:57:17.976Z,3.13
2022-08-17T06:58:23.453Z,3.65
2022-08-17T06:59:55.257Z,3.30
2022-08-17T07:01:03.540Z,3.05
2022-08-17T07:02:08.479Z,3.28
2022-08-17T07:03:15.430Z,3.20
2022-08-17T07:04:23.029Z,3.55
2022-08-17T07:05:28.050Z,3.38
2022-08-17T07:06:37.714Z,3.20
2022-08-17T07:07:47.569Z,3.28
2022-08-17T07:08:55.746Z,4.07
2022-08-17T07:10:00.904Z,3.33
2022-08-17T07:11:06.748Z,3.58
2022-08-17T07:12:14.835Z,3.30
2022-08-17T07:13:33.928Z,3.72
2022-08-17T07:14:39.450Z,3.45
2022-08-17T07:15:42.831Z,3.28
2022-08-17T07:16:48.665Z,3.60
2022-08-17T07:17:50.548Z,3.70
2022-08-17T07:18:55.589Z,3.60
2022-08-17T07:20:04.882Z,3.40
2022-08-17T07:21:17.523Z,3.47
2022-08-17T07:22:25.449Z,3.80
2022-08-17T07:23:52.278Z,3.50
2022-08-17T07:24:55.915Z,3.35
2022-08-17T07:26:04.205Z,3.33
2022-08-17T07:27:09.946Z,3.22
2022-08-17T07:28:11.419Z,3.53
2022-08-17T07:29:17.468Z,3.22
2022-08-17T07:30:24.569Z,3.55
2022-08-17T07:31:28.892Z,3.30
2022-08-17T07:32:34.146Z,3.20
2022-08-17T07:33:35.910Z,2.95
2022-08-17T07:35:10.804Z,3.00
2022-08-17T07:36:29.172Z,3.40
2022-08-17T07:37:31.418Z,3.10
2022-08-17T07:38:34.587Z,3.28
2022-08-17T07:39:36.156Z,3.03
2022-08-17T07:42:04.997Z,3.40
2022-08-17T07:43:21.842Z,3.60
2022-08-17T07:44:24.776Z,3.47
2022-08-17T07:45:26.370Z,3.47
2022-08-17T07:46:33.109Z,3.30
2022-08-17T07:47:34.598Z,3.45
2022-08-17T07:48:37.904Z,3.55
2022-08-17T07:49:42.004Z,3.75
2022-08-17T07:50:49.307Z,3.50
2022-08-17T07:51:59.976Z,3.05
2022-08-17T07:53:16.929Z,2.90
2022-08-17T07:54:21.999Z,3.22
2022-08-17T07:55:28.991Z,2.95
2022-08-17T07:56:34.929Z,3.50
2022-08-17T07:57:36.505Z,3.35
2022-08-17T07:58:37.961Z,2.97
2022-08-17T07:59:43.206Z,3.10
2022-08-17T08:00:45.752Z,2.85
2022-08-17T08:01:58.477Z,3.10
2022-08-17T08:03:12.260Z,2.80
2022-08-17T08:04:49.988Z,2.83
2022-08-17T08:06:56.999Z,2.90
2022-08-17T08:08:01.886Z,2.85
2022-08-17T08:09:03.581Z,3.83
2022-08-17T08:10:09.654Z,4.60
2022-08-17T08:11:13.818Z,5.20
2022-08-17T08:12:33.964Z,5.57
2022-08-17T08:13:37.567Z,5.13
2022-08-17T08:14:39.108Z,5.22
2022-08-17T08:15:45.141Z,4.78
2022-08-17T08:16:58.358Z,5.00
2022-08-17T08:18:02.355Z,5.20
2022-08-17T08:19:04.942Z,4.88
2022-08-17T08:20:47.643Z,5.43
2022-08-17T08:21:48.908Z,5.78
2022-08-17T08:22:59.133Z,5.40
2022-08-17T08:24:19.282Z,4.88
2022-08-17T08:25:30.187Z,5.60
2022-08-17T08:26:37.195Z,5.38
2022-08-17T08:27:49.491Z,6.28
2022-08-17T08:28:59.321Z,5.57
2022-08-17T08:30:06.713Z,5.65
2022-08-17T08:31:18.620Z,6.20
2022-08-17T08:32:42.058Z,5.80
2022-08-17T08:33:55.177Z,6.60
2022-08-17T08:35:04.060Z,5.63
2022-08-17T08:36:56.634Z,5.88
2022-08-17T08:37:47.334Z,6.10
2022-08-17T08:38:55.766Z,5.53
2022-08-17T08:40:08.149Z,6.13
2022-08-17T08:41:36.099Z,5.95
2022-08-17T08:42:44.613Z,5.88
2022-08-17T08:43:55.084Z,5.80
2022-08-17T08:45:05.523Z,6.40
2022-08-17T08:46:19.806Z,5.85
2022-08-17T08:47:35.539Z,5.70
2022-08-17T08:49:14.536Z,5.40
2022-08-17T08:50:37.167Z,5.57
2022-08-17T08:51:51.759Z,6.30
2022-08-17T08:53:12.455Z,5.75
2022-08-17T08:54:26.912Z,6.40
2022-08-17T08:55:42.155Z,6.32
2022-08-17T08:57:19.480Z,6.53
2022-08-17T08:58:31.617Z,6.32
2022-08-17T08:59:57.846Z,6.03
2022-08-17T09:01:03.633Z,6.13
2022-08-17T09:02:23.825Z,5.97
2022-08-17T09:03:53.168Z,6.10
2022-08-17T09:05:15.251Z,5.88
2022-08-17T09:06:37.866Z,5.55
2022-08-17T09:07:48.551Z,5.78
2022-08-17T09:09:03.570Z,5.82
2022-08-17T09:10:11.442Z,5.65
2022-08-17T09:11:19.434Z,5.43
2022-08-17T09:12:30.657Z,5.45
2022-08-17T09:14:50.003Z,5.78
2022-08-17T09:17:03.038Z,5.63
2022-08-17T09:19:00.458Z,5.45
2022-08-17T09:19:37.924Z,5.55
2022-08-17T09:20:50.230Z,5.97
2022-08-17T09:21:54.811Z,5.78
2022-08-17T09:23:02.302Z,5.45
2022-08-17T09:24:11.182Z,6.15
2022-08-17T09:25:17.013Z,5.93
2022-08-17T09:26:24.054Z,5.90
2022-08-17T09:27:32.857Z,5.80
2022-08-17T09:28:37.026Z,5.63
2022-08-17T09:29:43.346Z,5.28
2022-08-17T09:30:47.200Z,5.82
2022-08-17T09:31:54.214Z,5.75
2022-08-17T09:32:59.715Z,5.53
2022-08-17T09:34:05.245Z,5.82
2022-08-17T09:35:15.292Z,5.80
2022-08-17T09:36:22.903Z,5.70
2022-08-17T09:37:32.317Z,5.65
2022-08-17T09:38:45.440Z,5.38
2022-08-17T09:39:58.239Z,5.93
2022-08-17T09:41:09.313Z,5.45
2022-08-17T09:42:17.509Z,5.65
2022-08-17T09:43:31.602Z,5.57
2022-08-17T09:44:38.749Z,5.53
2022-08-17T09:45:45.067Z,5.70
2022-08-17T09:46:50.610Z,5.53
2022-08-17T09:47:57.812Z,6.00
2022-08-17T09:49:06.526Z,5.35
2022-08-17T09:50:13.416Z,5.45
2022-08-17T09:51:21.301Z,5.43
2022-08-17T09:52:26.205Z,5.97
2022-08-17T09:53:31.928Z,5.10
2022-08-17T09:54:40.285Z,4.90
2022-08-17T09:56:03.335Z,5.00
2022-08-17T09:57:31.780Z,4.90
2022-08-17T09:58:46.960Z,4.82
2022-08-17T10:00:02.281Z,5.30
2022-08-17T10:01:16.788Z,5.60
2022-08-17T10:02:39.566Z,7.35
2022-08-17T10:04:09.816Z,5.07
2022-08-17T10:05:16.901Z,5.18
2022-08-17T10:06:23.765Z,4.90
2022-08-17T10:07:33.894Z,4.57
2022-08-17T10:08:41.973Z,5.10
2022-08-17T10:09:55.948Z,5.38
2022-08-17T10:11:11.375Z,4.95
2022-08-17T10:12:28.296Z,5.07
2022-08-17T10:13:40.205Z,4.85
2022-08-17T10:15:14.738Z,4.78
2022-08-17T10:16:25.488Z,4.80
2022-08-17T10:17:35.041Z,4.45
2022-08-17T10:18:48.292Z,4.20
2022-08-17T10:19:58.211Z,4.13
2022-08-17T10:21:02.906Z,4.70
2022-08-17T10:22:14.546Z,4.35
2022-08-17T10:23:22.221Z,4.35
2022-08-17T10:24:29.249Z,4.13
2022-08-17T10:25:49.017Z,3.55
2022-08-17T10:26:58.502Z,2.97
2022-08-17T10:28:06.640Z,4.18
2022-08-17T10:30:17.621Z,3.97
2022-08-17T10:31:40.060Z,3.85
2022-08-17T10:32:48.340Z,3.00
2022-08-17T10:34:07.220Z,3.92
2022-08-17T10:35:29.016Z,3.80
2022-08-17T10:36:42.467Z,2.55
2022-08-17T10:38:08.397Z,4.05
2022-08-17T10:39:22.159Z,3.80
2022-08-17T10:40:33.159Z,4.10
2022-08-17T10:41:44.560Z,3.38
2022-08-17T10:42:51.480Z,2.90
2022-08-17T10:44:40.456Z,3.95
2022-08-17T10:45:30.792Z,4.22
2022-08-17T10:46:46.389Z,3.30
2022-08-17T10:48:04.828Z,3.55
2022-08-17T10:49:28.767Z,4.35
2022-08-17T10:50:47.773Z,3.35
2022-08-17T10:51:51.310Z,3.13
2022-08-17T10:52:52.866Z,3.97
2022-08-17T10:53:57.270Z,3.05
2022-08-17T10:55:18.652Z,3.80
2022-08-17T10:56:39.629Z,4.30
2022-08-17T10:57:43.418Z,3.53
2022-08-17T10:58:49.262Z,3.90
2022-08-17T10:59:53.198Z,3.75
2022-08-17T11:00:59.154Z,3.22
2022-08-17T11:02:12.817Z,3.90
2022-08-17T11:03:18.572Z,3.50
2022-08-17T11:04:27.968Z,3.35
2022-08-17T11:05:51.185Z,2.95
2022-08-17T11:07:07.231Z,3.20
2022-08-17T11:08:50.466Z,3.35
2022-08-17T11:10:13.617Z,3.10
2022-08-17T11:11:51.348Z,3.42
2022-08-17T11:13:01.256Z,2.83
2022-08-17T11:14:25.461Z,3.53
2022-08-17T11:15:42.608Z,2.80
2022-08-17T11:17:04.758Z,2.58
2022-08-17T11:18:20.863Z,2.90
2022-08-17T11:19:52.337Z,2.80
2022-08-17T11:21:17.875Z,2.60
2022-08-17T11:22:58.149Z,2.78
2022-08-17T11:24:18.910Z,2.45
2022-08-17T11:25:33.718Z,2.88
2022-08-17T11:26:38.541Z,2.65
2022-08-17T11:27:40.585Z,3.00
2022-08-17T11:28:52.443Z,3.28
2022-08-17T11:30:02.274Z,2.50
2022-08-17T11:31:08.554Z,2.90
2022-08-17T11:32:27.741Z,2.80
2022-08-17T11:34:02.566Z,2.50
2022-08-17T11:35:21.181Z,2.53
2022-08-17T11:36:35.077Z,2.85
2022-08-17T11:37:46.407Z,2.80
2022-08-17T11:40:25.288Z,3.00
2022-08-17T11:41:36.480Z,2.58
2022-08-17T11:42:55.548Z,2.78
2022-08-17T11:44:09.722Z,2.80
2022-08-17T11:45:32.450Z,2.80
2022-08-17T11:46:51.886Z,3.03
2022-08-17T11:48:26.042Z,2.80
2022-08-17T11:49:31.771Z,3.05
2022-08-17T11:50:46.210Z,2.13
2022-08-17T11:52:10.296Z,3.00
2022-08-17T11:54:32.849Z,2.95
2022-08-17T11:56:04.157Z,3.00
2022-08-17T11:57:39.136Z,2.80
2022-08-17T11:58:42.382Z,2.88
2022-08-17T11:59:59.028Z,3.30
2022-08-17T12:01:03.264Z,3.08
2022-08-17T12:02:36.224Z,2.97
2022-08-17T12:03:55.620Z,2.40
2022-08-17T12:05:09.641Z,3.45
2022-08-17T12:06:30.742Z,4.38
2022-08-17T12:07:34.216Z,2.75
2022-08-17T12:08:40.880Z,2.83
2022-08-17T12:09:45.856Z,3.42
2022-08-17T12:10:59.424Z,3.42
2022-08-17T12:12:12.841Z,3.08
2022-08-17T12:13:17.762Z,3.13
2022-08-17T12:14:35.685Z,3.70
2022-08-17T12:15:48.761Z,3.05
2022-08-17T12:17:05.722Z,2.88
2022-08-17T12:18:07.412Z,2.92
2022-08-17T12:19:17.987Z,2.90
2022-08-17T12:20:24.147Z,2.95
2022-08-17T12:21:39.721Z,3.10
2022-08-17T12:22:49.586Z,2.97
2022-08-17T12:23:57.315Z,2.90
2022-08-17T12:25:08.910Z,3.20
2022-08-17T12:26:16.995Z,2.90
2022-08-17T12:27:48.916Z,2.88
2022-08-17T12:28:49.973Z,3.08
2022-08-17T12:29:53.598Z,2.70
2022-08-17T12:30:58.141Z,3.33
2022-08-17T12:32:01.214Z,2.88
2022-08-17T12:33:02.777Z,2.60
2022-08-17T12:34:04.979Z,4.20
2022-08-17T12:35:26.054Z,3.55
2022-08-17T12:36:28.819Z,3.22
2022-08-17T12:37:32.951Z,2.95
2022-08-17T12:38:36.801Z,3.05
2022-08-17T12:39:40.163Z,2.90
2022-08-17T12:40:53.786Z,2.60
2022-08-17T12:42:02.623Z,2.92
2022-08-17T12:43:07.773Z,3.60
2022-08-17T12:44:15.529Z,3.28
2022-08-17T12:45:23.096Z,2.92
2022-08-17T12:46:24.562Z,3.03
2022-08-17T12:47:29.515Z,3.03
2022-08-17T12:48:31.090Z,2.67
2022-08-17T12:49:35.580Z,2.60
2022-08-17T12:50:39.885Z,2.90
2022-08-17T12:51:45.712Z,3.03
2022-08-17T12:52:48.420Z,2.38
2022-08-17T12:53:55.079Z,3.05
2022-08-17T12:54:59.852Z,2.83
2022-08-17T12:56:06.765Z,3.53
2022-08-17T12:57:13.421Z,2.30
2022-08-17T12:58:19.232Z,2.65
2022-08-17T12:59:29.745Z,3.13
2022-08-17T13:01:34.864Z,2.95
2022-08-17T13:02:45.139Z,2.83
2022-08-17T13:03:50.260Z,3.67
2022-08-17T13:04:51.876Z,3.08
2022-08-17T13:05:58.703Z,2.45
2022-08-17T13:07:00.461Z,3.17
2022-08-17T13:08:13.875Z,2.90
2022-08-17T13:09:20.819Z,2.90
2022-08-17T13:10:31.672Z,2.42
2022-08-17T13:11:34.250Z,3.55
2022-08-17T13:12:36.106Z,3.08
2022-08-17T13:13:40.235Z,3.20
2022-08-17T13:14:45.214Z,2.72
2022-08-17T13:15:53.055Z,3.20
2022-08-17T13:17:00.139Z,2.92
2022-08-17T13:18:06.725Z,2.33
2022-08-17T13:19:13.079Z,2.97
2022-08-17T13:20:15.155Z,2.95
2022-08-17T13:21:26.362Z,2.47
2022-08-17T13:23:30.777Z,3.08
2022-08-17T13:24:38.022Z,3.38
2022-08-17T13:25:40.169Z,2.88
2022-08-17T13:26:45.346Z,2.72
2022-08-17T13:27:50.166Z,2.63
2022-08-17T13:28:51.793Z,2.80
2022-08-17T13:29:55.999Z,3.38
2022-08-17T13:31:22.150Z,3.55
2022-08-17T13:32:34.269Z,2.42
2022-08-17T13:33:44.770Z,3.25
2022-08-17T13:35:12.503Z,3.30
2022-08-17T13:36:10.723Z,2.67
2022-08-17T13:37:30.264Z,3.25
2022-08-17T13:38:42.586Z,3.95
2022-08-17T13:39:45.504Z,3.08
2022-08-17T13:40:50.404Z,4.05
2022-08-17T13:41:54.374Z,3.83
2022-08-17T13:42:56.905Z,3.38
2022-08-17T13:43:58.420Z,2.28
2022-08-17T13:45:01.469Z,3.40
2022-08-17T13:46:28.271Z,3.80
2022-08-17T13:47:29.811Z,3.53
2022-08-17T13:48:31.327Z,3.45
2022-08-17T13:49:48.440Z,3.40
2022-08-17T13:51:06.951Z,2.40
2022-08-17T13:52:12.472Z,4.07
2022-08-17T13:53:21.393Z,2.53
2022-08-17T13:54:29.066Z,2.35
2022-08-17T13:55:31.538Z,3.08
2022-08-17T13:57:02.211Z,3.13
2022-08-17T13:58:06.999Z,3.22
2022-08-17T13:59:12.390Z,2.72
2022-08-17T14:00:19.852Z,3.60
2022-08-17T14:01:29.271Z,3.67
2022-08-17T14:02:30.793Z,3.35
2022-08-17T14:03:32.287Z,3.33
2022-08-17T14:04:38.055Z,2.55
2022-08-17T14:05:39.597Z,3.88
2022-08-17T14:06:51.978Z,3.50
2022-08-17T14:07:57.293Z,3.97
2022-08-17T14:08:58.916Z,3.50
2022-08-17T14:10:04.081Z,3.45
2022-08-17T14:11:05.577Z,2.72
2022-08-17T14:12:11.457Z,3.35
2022-08-17T14:13:14.090Z,3.50
2022-08-17T14:14:16.556Z,3.80
2022-08-17T14:15:20.528Z,2.55
2022-08-17T14:16:22.029Z,3.80
2022-08-17T14:17:25.062Z,3.20
2022-08-17T14:18:50.519Z,3.22
2022-08-17T14:20:50.784Z,2.90
2022-08-17T14:21:53.026Z,3.80
2022-08-17T14:22:55.075Z,3.42
2022-08-17T14:23:57.865Z,4.10
2022-08-17T14:25:01.059Z,3.53
2022-08-17T14:26:02.582Z,2.80
2022-08-17T14:27:05.378Z,3.58
2022-08-17T14:28:06.883Z,3.88
2022-08-17T14:29:15.426Z,2.88
2022-08-17T14:30:17.531Z,3.03
2022-08-17T14:31:19.042Z,2.80
2022-08-17T14:32:23.294Z,3.65
2022-08-17T14:33:24.764Z,2.55
2022-08-17T14:34:26.273Z,3.58
2022-08-17T14:35:29.669Z,3.50
2022-08-17T14:36:31.153Z,3.05
2022-08-17T14:37:32.983Z,3.47
2022-08-17T14:38:34.487Z,2.42
2022-08-17T14:39:36.008Z,3.20
2022-08-17T14:40:37.617Z,3.40
2022-08-17T14:41:40.181Z,3.97
2022-08-17T14:42:44.094Z,3.25
2022-08-17T14:43:47.545Z,2.92
2022-08-17T14:44:49.017Z,3.30
2022-08-17T14:45:50.484Z,2.70
2022-08-17T14:46:51.970Z,3.13
2022-08-17T14:47:53.502Z,2.65
2022-08-17T14:48:57.672Z,3.15
2022-08-17T14:49:59.617Z,2.58
2022-08-17T14:51:04.696Z,3.22
2022-08-17T14:52:06.400Z,3.80
2022-08-17T14:53:11.939Z,2.75
2022-08-17T14:54:33.694Z,3.47
2022-08-17T14:55:36.095Z,3.35
2022-08-17T14:56:37.922Z,2.47
2022-08-17T14:57:39.818Z,2.47
2022-08-17T14:58:41.454Z,2.90
2022-08-17T14:59:43.030Z,2.67
2022-08-17T15:00:44.532Z,2.38
2022-08-17T15:01:46.049Z,2.95
2022-08-17T15:02:50.488Z,3.60
2022-08-17T15:03:52.017Z,4.10
2022-08-17T15:04:53.627Z,3.92
2022-08-17T15:05:57.737Z,3.97
2022-08-17T15:07:00.569Z,3.45
2022-08-17T15:08:03.533Z,4.03
2022-08-17T15:09:05.030Z,3.75
2022-08-17T15:10:08.264Z,4.03
2022-08-17T15:11:11.793Z,3.70
2022-08-17T15:12:17.890Z,3.97
2022-08-17T15:13:21.866Z,3.75
2022-08-17T15:14:23.497Z,4.30
2022-08-17T15:15:25.239Z,4.18